sensor_id;sensor_type;location;lat;lon;timestamp;temperature;humidity
32147;DHT22;32190;49.112;8.598;2023-05-06T00:05:37;22.00;51.50
32147;DHT22;32190;49.112;8.598;2023-05-06T00:11:28;21.90;51.70
32147;DHT22;32190;49.112;8.598;2023-05-06T00:17:18;21.90;51.80
32147;DHT22;32190;49.112;8.598;2023-05-06T00:23:09;21.90;52.00
32147;DHT22;32190;49.112;8.598;2023-05-06T00:29:00;21.80;52.20
32147;DHT22;32190;49.112;8.598;2023-05-06T00:34:50;21.80;52.20
32147;DHT22;32190;49.112;8.598;2023-05-06T00:40:41;21.70;52.20
32147;DHT22;32190;49.112;8.598;2023-05-06T00:46:32;21.70;52.40
32147;DHT22;32190;49.112;8.598;2023-05-06T00:52:23;21.70;52.30
32147;DHT22;32190;49.112;8.598;2023-05-06T00:58:13;21.70;52.40
32147;DHT22;32190;49.112;8.598;2023-05-06T01:04:04;21.70;52.30
32147;DHT22;32190;49.112;8.598;2023-05-06T01:16:24;21.60;52.60
32147;DHT22;32190;49.112;8.598;2023-05-06T01:22:17;21.60;52.50
32147;DHT22;32190;49.112;8.598;2023-05-06T01:28:09;21.50;52.20
32147;DHT22;32190;49.112;8.598;2023-05-06T01:34:08;21.50;52.30
32147;DHT22;32190;49.112;8.598;2023-05-06T01:40:02;21.40;52.40
32147;DHT22;32190;49.112;8.598;2023-05-06T01:45:55;21.40;52.20
32147;DHT22;32190;49.112;8.598;2023-05-06T01:51:47;21.30;52.20
32147;DHT22;32190;49.112;8.598;2023-05-06T01:57:38;21.20;52.30
32147;DHT22;32190;49.112;8.598;2023-05-06T02:03:28;21.10;52.40
32147;DHT22;32190;49.112;8.598;2023-05-06T02:09:19;21.10;52.40
32147;DHT22;32190;49.112;8.598;2023-05-06T02:15:10;21.00;52.40
32147;DHT22;32190;49.112;8.598;2023-05-06T02:21:00;20.90;52.40
32147;DHT22;32190;49.112;8.598;2023-05-06T02:26:52;20.90;52.60
32147;DHT22;32190;49.112;8.598;2023-05-06T02:32:43;20.80;52.60
32147;DHT22;32190;49.112;8.598;2023-05-06T02:38:33;20.70;52.60
32147;DHT22;32190;49.112;8.598;2023-05-06T02:44:24;20.70;52.80
32147;DHT22;32190;49.112;8.598;2023-05-06T02:50:14;20.60;52.80
32147;DHT22;32190;49.112;8.598;2023-05-06T02:56:06;20.60;52.90
32147;DHT22;32190;49.112;8.598;2023-05-06T03:01:56;20.50;52.90
32147;DHT22;32190;49.112;8.598;2023-05-06T03:07:47;20.50;53.00
32147;DHT22;32190;49.112;8.598;2023-05-06T03:13:37;20.40;53.00
32147;DHT22;32190;49.112;8.598;2023-05-06T03:19:28;20.40;53.10
32147;DHT22;32190;49.112;8.598;2023-05-06T03:25:18;20.30;53.20
32147;DHT22;32190;49.112;8.598;2023-05-06T03:31:09;20.30;53.20
32147;DHT22;32190;49.112;8.598;2023-05-06T03:37:00;20.20;53.20
32147;DHT22;32190;49.112;8.598;2023-05-06T03:42:50;20.20;53.30
32147;DHT22;32190;49.112;8.598;2023-05-06T03:48:41;20.10;53.40
32147;DHT22;32190;49.112;8.598;2023-05-06T03:54:31;20.10;53.50
32147;DHT22;32190;49.112;8.598;2023-05-06T04:00:22;20.00;53.70
32147;DHT22;32190;49.112;8.598;2023-05-06T04:06:12;19.90;53.80
32147;DHT22;32190;49.112;8.598;2023-05-06T04:12:03;19.80;54.00
32147;DHT22;32190;49.112;8.598;2023-05-06T04:17:54;19.70;54.00
32147;DHT22;32190;49.112;8.598;2023-05-06T04:23:44;19.50;54.10
32147;DHT22;32190;49.112;8.598;2023-05-06T04:29:35;19.50;54.20
32147;DHT22;32190;49.112;8.598;2023-05-06T04:35:25;19.40;54.30
32147;DHT22;32190;49.112;8.598;2023-05-06T04:41:16;19.30;54.40
32147;DHT22;32190;49.112;8.598;2023-05-06T04:47:06;19.30;54.50
32147;DHT22;32190;49.112;8.598;2023-05-06T04:52:57;19.30;54.70
32147;DHT22;32190;49.112;8.598;2023-05-06T04:58:47;19.30;54.90
32147;DHT22;32190;49.112;8.598;2023-05-06T05:04:38;19.30;55.10
32147;DHT22;32190;49.112;8.598;2023-05-06T05:10:28;19.30;55.30
32147;DHT22;32190;49.112;8.598;2023-05-06T05:16:19;19.30;55.40
32147;DHT22;32190;49.112;8.598;2023-05-06T05:22:10;19.20;55.60
32147;DHT22;32190;49.112;8.598;2023-05-06T05:28:00;19.40;55.90
32147;DHT22;32190;49.112;8.598;2023-05-06T05:33:51;19.60;56.80
32147;DHT22;32190;49.112;8.598;2023-05-06T05:39:41;20.30;57.20
32147;DHT22;32190;49.112;8.598;2023-05-06T05:45:32;21.20;56.30
32147;DHT22;32190;49.112;8.598;2023-05-06T05:51:22;21.80;55.30
32147;DHT22;32190;49.112;8.598;2023-05-06T05:57:13;22.10;54.40
32147;DHT22;32190;49.112;8.598;2023-05-06T06:03:03;22.10;53.70
32147;DHT22;32190;49.112;8.598;2023-05-06T06:08:54;22.00;53.40
32147;DHT22;32190;49.112;8.598;2023-05-06T06:14:44;21.90;54.10
32147;DHT22;32190;49.112;8.598;2023-05-06T06:20:37;21.90;53.50
32147;DHT22;32190;49.112;8.598;2023-05-06T06:26:27;21.90;53.40
32147;DHT22;32190;49.112;8.598;2023-05-06T06:32:18;22.10;53.60
32147;DHT22;32190;49.112;8.598;2023-05-06T06:38:09;22.60;53.30
32147;DHT22;32190;49.112;8.598;2023-05-06T06:43:59;23.30;53.00
32147;DHT22;32190;49.112;8.598;2023-05-06T06:49:50;24.10;52.20
32147;DHT22;32190;49.112;8.598;2023-05-06T06:55:44;24.80;51.40
32147;DHT22;32190;49.112;8.598;2023-05-06T07:01:34;25.20;50.00
32147;DHT22;32190;49.112;8.598;2023-05-06T07:07:25;25.50;49.70
32147;DHT22;32190;49.112;8.598;2023-05-06T07:13:15;25.50;49.40
32147;DHT22;32190;49.112;8.598;2023-05-06T07:19:06;25.40;48.90
32147;DHT22;32190;49.112;8.598;2023-05-06T07:24:57;25.20;48.70
32147;DHT22;32190;49.112;8.598;2023-05-06T07:30:47;25.20;48.90
32147;DHT22;32190;49.112;8.598;2023-05-06T07:36:40;24.90;48.80
32147;DHT22;32190;49.112;8.598;2023-05-06T07:42:32;24.60;48.90
32147;DHT22;32190;49.112;8.598;2023-05-06T07:48:23;24.20;49.10
32147;DHT22;32190;49.112;8.598;2023-05-06T07:54:13;23.90;49.40
32147;DHT22;32190;49.112;8.598;2023-05-06T08:00:04;23.70;49.30
32147;DHT22;32190;49.112;8.598;2023-05-06T08:05:55;23.60;49.40
32147;DHT22;32190;49.112;8.598;2023-05-06T08:11:46;23.60;49.60
32147;DHT22;32190;49.112;8.598;2023-05-06T08:17:36;23.60;49.30
32147;DHT22;32190;49.112;8.598;2023-05-06T08:23:27;23.50;48.90
32147;DHT22;32190;49.112;8.598;2023-05-06T08:29:18;23.40;49.10
32147;DHT22;32190;49.112;8.598;2023-05-06T08:35:08;23.40;49.60
32147;DHT22;32190;49.112;8.598;2023-05-06T08:41:01;23.30;49.10
32147;DHT22;32190;49.112;8.598;2023-05-06T08:46:57;23.10;49.30
32147;DHT22;32190;49.112;8.598;2023-05-06T08:52:49;23.00;48.50
32147;DHT22;32190;49.112;8.598;2023-05-06T08:58:43;23.10;48.80
32147;DHT22;32190;49.112;8.598;2023-05-06T09:04:36;23.10;47.90
32147;DHT22;32190;49.112;8.598;2023-05-06T09:10:31;23.10;49.40
32147;DHT22;32190;49.112;8.598;2023-05-06T09:16:26;23.20;48.90
32147;DHT22;32190;49.112;8.598;2023-05-06T09:22:21;23.30;48.80
32147;DHT22;32190;49.112;8.598;2023-05-06T09:28:12;23.30;48.50
32147;DHT22;32190;49.112;8.598;2023-05-06T09:34:03;23.40;47.80
32147;DHT22;32190;49.112;8.598;2023-05-06T09:39:56;23.40;47.50
32147;DHT22;32190;49.112;8.598;2023-05-06T09:45:47;23.40;47.90
32147;DHT22;32190;49.112;8.598;2023-05-06T09:51:38;23.40;47.80
32147;DHT22;32190;49.112;8.598;2023-05-06T09:57:31;23.40;47.70
32147;DHT22;32190;49.112;8.598;2023-05-06T10:03:23;23.40;47.90
32147;DHT22;32190;49.112;8.598;2023-05-06T10:09:14;23.50;48.10
32147;DHT22;32190;49.112;8.598;2023-05-06T10:15:06;23.60;47.90
32147;DHT22;32190;49.112;8.598;2023-05-06T10:20:58;23.60;47.90
32147;DHT22;32190;49.112;8.598;2023-05-06T10:26:51;23.70;47.70
32147;DHT22;32190;49.112;8.598;2023-05-06T10:32:45;23.70;47.10
32147;DHT22;32190;49.112;8.598;2023-05-06T10:38:39;23.70;47.40
32147;DHT22;32190;49.112;8.598;2023-05-06T10:45:01;23.70;46.70
32147;DHT22;32190;49.112;8.598;2023-05-06T10:57:07;23.80;47.60
32147;DHT22;32190;49.112;8.598;2023-05-06T11:03:11;23.70;46.60
32147;DHT22;32190;49.112;8.598;2023-05-06T11:09:04;23.70;46.40
32147;DHT22;32190;49.112;8.598;2023-05-06T11:15:24;23.70;46.70
32147;DHT22;32190;49.112;8.598;2023-05-06T11:27:09;23.80;46.50
32147;DHT22;32190;49.112;8.598;2023-05-06T11:33:03;23.80;46.80
32147;DHT22;32190;49.112;8.598;2023-05-06T11:38:54;23.80;46.50
32147;DHT22;32190;49.112;8.598;2023-05-06T11:44:48;23.90;46.20
32147;DHT22;32190;49.112;8.598;2023-05-06T11:50:46;23.90;46.20
32147;DHT22;32190;49.112;8.598;2023-05-06T11:56:45;24.00;46.50
32147;DHT22;32190;49.112;8.598;2023-05-06T12:02:36;24.10;45.40
32147;DHT22;32190;49.112;8.598;2023-05-06T12:08:35;24.30;45.70
32147;DHT22;32190;49.112;8.598;2023-05-06T12:14:26;24.40;44.90
32147;DHT22;32190;49.112;8.598;2023-05-06T12:20:17;24.60;45.10
32147;DHT22;32190;49.112;8.598;2023-05-06T12:26:08;24.60;45.00
32147;DHT22;32190;49.112;8.598;2023-05-06T12:32:09;24.70;45.00
32147;DHT22;32190;49.112;8.598;2023-05-06T12:38:11;24.80;44.60
32147;DHT22;32190;49.112;8.598;2023-05-06T12:44:02;24.90;44.70
32147;DHT22;32190;49.112;8.598;2023-05-06T12:49:55;25.00;44.00
32147;DHT22;32190;49.112;8.598;2023-05-06T12:55:50;25.10;44.40
32147;DHT22;32190;49.112;8.598;2023-05-06T13:01:40;25.20;44.50
32147;DHT22;32190;49.112;8.598;2023-05-06T13:07:31;25.30;44.10
32147;DHT22;32190;49.112;8.598;2023-05-06T13:13:21;25.50;43.90
32147;DHT22;32190;49.112;8.598;2023-05-06T13:19:12;25.50;43.30
32147;DHT22;32190;49.112;8.598;2023-05-06T13:25:03;25.60;43.90
32147;DHT22;32190;49.112;8.598;2023-05-06T13:30:53;25.70;43.40
32147;DHT22;32190;49.112;8.598;2023-05-06T13:36:44;25.80;43.20
32147;DHT22;32190;49.112;8.598;2023-05-06T13:42:36;25.90;42.50
32147;DHT22;32190;49.112;8.598;2023-05-06T13:48:26;26.10;42.30
32147;DHT22;32190;49.112;8.598;2023-05-06T13:54:17;26.10;42.20
32147;DHT22;32190;49.112;8.598;2023-05-06T14:00:08;26.20;41.60
32147;DHT22;32190;49.112;8.598;2023-05-06T14:05:59;26.30;41.10
32147;DHT22;32190;49.112;8.598;2023-05-06T14:11:50;26.30;40.40
32147;DHT22;32190;49.112;8.598;2023-05-06T14:17:42;26.40;40.90
32147;DHT22;32190;49.112;8.598;2023-05-06T14:23:32;26.60;41.80
32147;DHT22;32190;49.112;8.598;2023-05-06T14:29:23;26.70;41.30
32147;DHT22;32190;49.112;8.598;2023-05-06T14:35:14;26.80;40.80
32147;DHT22;32190;49.112;8.598;2023-05-06T14:41:04;26.80;40.20
32147;DHT22;32190;49.112;8.598;2023-05-06T14:47:06;26.80;40.30
32147;DHT22;32190;49.112;8.598;2023-05-06T14:52:56;26.80;39.10
32147;DHT22;32190;49.112;8.598;2023-05-06T14:58:47;26.80;39.90
32147;DHT22;32190;49.112;8.598;2023-05-06T15:04:37;26.80;39.50
32147;DHT22;32190;49.112;8.598;2023-05-06T15:10:28;26.80;40.20
32147;DHT22;32190;49.112;8.598;2023-05-06T15:16:18;27.00;39.80
32147;DHT22;32190;49.112;8.598;2023-05-06T15:22:09;27.00;40.40
32147;DHT22;32190;49.112;8.598;2023-05-06T15:27:59;27.10;40.10
32147;DHT22;32190;49.112;8.598;2023-05-06T15:33:50;27.10;40.50
32147;DHT22;32190;49.112;8.598;2023-05-06T15:39:40;27.20;40.70
32147;DHT22;32190;49.112;8.598;2023-05-06T15:45:31;27.30;39.90
32147;DHT22;32190;49.112;8.598;2023-05-06T15:51:22;27.30;39.80
32147;DHT22;32190;49.112;8.598;2023-05-06T15:57:14;27.30;40.00
32147;DHT22;32190;49.112;8.598;2023-05-06T16:03:04;27.40;40.20
32147;DHT22;32190;49.112;8.598;2023-05-06T16:08:55;27.40;39.70
32147;DHT22;32190;49.112;8.598;2023-05-06T16:14:45;27.40;39.40
32147;DHT22;32190;49.112;8.598;2023-05-06T16:20:36;27.40;39.50
32147;DHT22;32190;49.112;8.598;2023-05-06T16:26:26;27.40;39.70
32147;DHT22;32190;49.112;8.598;2023-05-06T16:32:17;27.30;39.20
32147;DHT22;32190;49.112;8.598;2023-05-06T16:38:08;27.30;39.60
32147;DHT22;32190;49.112;8.598;2023-05-06T16:43:58;27.20;39.30
32147;DHT22;32190;49.112;8.598;2023-05-06T16:49:49;27.20;39.00
32147;DHT22;32190;49.112;8.598;2023-05-06T16:55:45;27.20;39.40
32147;DHT22;32190;49.112;8.598;2023-05-06T17:01:36;27.10;38.60
32147;DHT22;32190;49.112;8.598;2023-05-06T17:07:27;27.00;40.20
32147;DHT22;32190;49.112;8.598;2023-05-06T17:13:17;26.90;39.30
32147;DHT22;32190;49.112;8.598;2023-05-06T17:19:08;26.80;39.80
32147;DHT22;32190;49.112;8.598;2023-05-06T17:24:59;26.80;40.10
32147;DHT22;32190;49.112;8.598;2023-05-06T17:30:49;26.80;40.30
32147;DHT22;32190;49.112;8.598;2023-05-06T17:36:40;26.70;40.50
32147;DHT22;32190;49.112;8.598;2023-05-06T17:42:30;26.70;40.70
32147;DHT22;32190;49.112;8.598;2023-05-06T17:48:21;26.70;40.90
32147;DHT22;32190;49.112;8.598;2023-05-06T17:54:12;26.70;41.20
32147;DHT22;32190;49.112;8.598;2023-05-06T18:00:02;26.60;41.40
32147;DHT22;32190;49.112;8.598;2023-05-06T18:05:53;26.50;41.50
32147;DHT22;32190;49.112;8.598;2023-05-06T18:11:44;26.50;41.60
32147;DHT22;32190;49.112;8.598;2023-05-06T18:17:35;26.30;41.60
32147;DHT22;32190;49.112;8.598;2023-05-06T18:23:25;26.10;41.80
32147;DHT22;32190;49.112;8.598;2023-05-06T18:29:40;25.90;42.10
32147;DHT22;32190;49.112;8.598;2023-05-06T18:36:03;25.70;42.20
32147;DHT22;32190;49.112;8.598;2023-05-06T18:42:05;25.50;42.20
32147;DHT22;32190;49.112;8.598;2023-05-06T18:47:55;25.30;42.40
32147;DHT22;32190;49.112;8.598;2023-05-06T18:53:46;25.00;42.60
32147;DHT22;32190;49.112;8.598;2023-05-06T18:59:37;24.70;43.00
32147;DHT22;32190;49.112;8.598;2023-05-06T19:05:27;24.50;43.40
32147;DHT22;32190;49.112;8.598;2023-05-06T19:11:18;24.20;43.70
32147;DHT22;32190;49.112;8.598;2023-05-06T19:17:08;24.00;44.00
32147;DHT22;32190;49.112;8.598;2023-05-06T19:23:00;23.80;44.30
32147;DHT22;32190;49.112;8.598;2023-05-06T19:28:52;23.80;44.30
32147;DHT22;32190;49.112;8.598;2023-05-06T19:34:43;23.70;44.50
32147;DHT22;32190;49.112;8.598;2023-05-06T19:40:34;23.60;44.70
32147;DHT22;32190;49.112;8.598;2023-05-06T19:46:25;23.60;44.70
32147;DHT22;32190;49.112;8.598;2023-05-06T19:52:15;23.60;44.60
32147;DHT22;32190;49.112;8.598;2023-05-06T19:58:06;23.70;44.80
32147;DHT22;32190;49.112;8.598;2023-05-06T20:03:56;23.70;44.90
32147;DHT22;32190;49.112;8.598;2023-05-06T20:09:47;23.70;45.00
32147;DHT22;32190;49.112;8.598;2023-05-06T20:15:44;23.80;45.00
32147;DHT22;32190;49.112;8.598;2023-05-06T20:21:35;23.80;44.80
32147;DHT22;32190;49.112;8.598;2023-05-06T20:27:25;23.60;44.70
32147;DHT22;32190;49.112;8.598;2023-05-06T20:33:16;23.50;44.80
32147;DHT22;32190;49.112;8.598;2023-05-06T20:39:06;23.40;45.20
32147;DHT22;32190;49.112;8.598;2023-05-06T20:44:59;23.30;45.30
32147;DHT22;32190;49.112;8.598;2023-05-06T20:50:51;23.30;45.60
32147;DHT22;32190;49.112;8.598;2023-05-06T20:56:43;23.30;45.60
32147;DHT22;32190;49.112;8.598;2023-05-06T21:02:34;23.40;45.70
32147;DHT22;32190;49.112;8.598;2023-05-06T21:08:24;23.30;45.70
32147;DHT22;32190;49.112;8.598;2023-05-06T21:14:15;23.30;45.70
32147;DHT22;32190;49.112;8.598;2023-05-06T21:20:06;23.30;45.70
32147;DHT22;32190;49.112;8.598;2023-05-06T21:25:57;23.30;45.70
32147;DHT22;32190;49.112;8.598;2023-05-06T21:31:48;23.20;45.70
32147;DHT22;32190;49.112;8.598;2023-05-06T21:37:39;23.10;45.70
32147;DHT22;32190;49.112;8.598;2023-05-06T21:43:29;23.10;45.70
32147;DHT22;32190;49.112;8.598;2023-05-06T21:49:20;23.00;45.80
32147;DHT22;32190;49.112;8.598;2023-05-06T21:55:11;22.90;46.00
32147;DHT22;32190;49.112;8.598;2023-05-06T22:01:02;22.90;46.20
32147;DHT22;32190;49.112;8.598;2023-05-06T22:06:53;22.80;46.10
32147;DHT22;32190;49.112;8.598;2023-05-06T22:12:43;22.70;46.10
32147;DHT22;32190;49.112;8.598;2023-05-06T22:18:34;22.60;46.10
32147;DHT22;32190;49.112;8.598;2023-05-06T22:24:25;22.30;46.20
32147;DHT22;32190;49.112;8.598;2023-05-06T22:30:16;22.10;46.60
32147;DHT22;32190;49.112;8.598;2023-05-06T22:36:07;21.90;47.00
32147;DHT22;32190;49.112;8.598;2023-05-06T22:41:57;21.80;47.20
32147;DHT22;32190;49.112;8.598;2023-05-06T22:47:48;21.80;47.40
32147;DHT22;32190;49.112;8.598;2023-05-06T22:53:38;21.80;47.40
32147;DHT22;32190;49.112;8.598;2023-05-06T22:59:29;21.70;47.50
32147;DHT22;32190;49.112;8.598;2023-05-06T23:05:19;21.70;47.60
32147;DHT22;32190;49.112;8.598;2023-05-06T23:11:10;21.60;47.80
32147;DHT22;32190;49.112;8.598;2023-05-06T23:17:01;21.60;47.80
32147;DHT22;32190;49.112;8.598;2023-05-06T23:22:51;21.60;48.00
32147;DHT22;32190;49.112;8.598;2023-05-06T23:28:42;21.60;48.10
32147;DHT22;32190;49.112;8.598;2023-05-06T23:34:32;21.60;48.10
32147;DHT22;32190;49.112;8.598;2023-05-06T23:40:23;21.60;48.10
32147;DHT22;32190;49.112;8.598;2023-05-06T23:46:13;21.60;48.00
32147;DHT22;32190;49.112;8.598;2023-05-06T23:52:04;21.60;48.10
32147;DHT22;32190;49.112;8.598;2023-05-06T23:57:55;21.50;48.10
